createdAt,value
2022-08-05T00:00:19.631Z,5.30
2022-08-05T00:03:08.948Z,5.40
2022-08-05T00:06:06.585Z,5.10
2022-08-05T00:09:12.970Z,5.30
2022-08-05T00:11:49.597Z,4.70
2022-08-05T00:14:34.845Z,5.00
2022-08-05T00:17:03.053Z,5.30
2022-08-05T00:20:02.192Z,5.50
2022-08-05T00:22:31.439Z,5.50
2022-08-05T00:25:10.484Z,5.30
2022-08-05T00:27:43.009Z,5.30
2022-08-05T00:30:11.732Z,5.80
2022-08-05T00:32:50.296Z,6.10
2022-08-05T00:35:32.991Z,5.00
2022-08-05T00:38:02.575Z,5.80
2022-08-05T00:40:31.231Z,4.90
2022-08-05T00:43:02.120Z,5.60
2022-08-05T00:45:38.801Z,5.40
2022-08-05T00:48:31.597Z,5.60
2022-08-05T00:51:08.757Z,5.60
2022-08-05T00:54:02.480Z,5.50
2022-08-05T00:56:38.544Z,5.50
2022-08-05T00:59:19.533Z,5.20
2022-08-05T01:01:48.602Z,5.30
2022-08-05T01:04:27.021Z,5.40
2022-08-05T01:07:18.445Z,5.60
2022-08-05T01:09:55.663Z,6.00
2022-08-05T01:13:00.428Z,5.60
2022-08-05T01:15:47.813Z,5.60
2022-08-05T01:18:24.157Z,5.90
2022-08-05T01:21:38.229Z,6.60
2022-08-05T01:24:25.170Z,6.20
2022-08-05T01:27:37.071Z,6.10
2022-08-05T01:30:34.675Z,6.10
2022-08-05T01:33:11.005Z,6.10
2022-08-05T01:35:57.513Z,6.10
2022-08-05T01:38:29.912Z,6.80
2022-08-05T01:41:07.802Z,6.60
2022-08-05T01:43:36.836Z,6.40
2022-08-05T01:46:16.391Z,6.60
2022-08-05T01:48:49.613Z,5.80
2022-08-05T01:51:39.325Z,6.40
2022-08-05T01:54:10.910Z,6.20
2022-08-05T01:58:09.771Z,6.50
2022-08-05T01:59:39.801Z,6.20
2022-08-05T02:02:12.366Z,6.30
2022-08-05T02:04:49.613Z,6.10
2022-08-05T02:07:22.043Z,6.30
2022-08-05T02:09:53.924Z,6.30
2022-08-05T02:12:33.151Z,6.00
2022-08-05T02:15:25.708Z,6.20
2022-08-05T02:18:31.515Z,6.50
2022-08-05T02:21:46.663Z,6.00
2022-08-05T02:24:43.144Z,6.50
2022-08-05T02:27:25.750Z,6.60
2022-08-05T02:30:05.184Z,6.70
2022-08-05T02:32:34.669Z,6.70
2022-08-05T02:35:22.132Z,6.70
2022-08-05T02:38:00.414Z,6.10
2022-08-05T02:40:31.664Z,6.70
2022-08-05T02:43:01.514Z,6.30
2022-08-05T02:45:52.366Z,6.20
2022-08-05T02:48:20.038Z,7.00
2022-08-05T02:51:03.077Z,6.50
2022-08-05T02:53:44.976Z,6.70
2022-08-05T02:56:19.526Z,6.50
2022-08-05T02:59:28.967Z,6.50
2022-08-05T03:02:13.784Z,6.90
2022-08-05T03:05:06.561Z,6.60
2022-08-05T03:08:06.626Z,6.20
2022-08-05T03:10:43.656Z,6.40
2022-08-05T03:13:51.510Z,6.70
2022-08-05T03:17:00.922Z,6.80
2022-08-05T03:19:33.763Z,6.20
2022-08-05T03:25:31.946Z,5.90
2022-08-05T03:28:11.703Z,6.50
2022-08-05T03:30:43.336Z,5.70
2022-08-05T03:33:11.602Z,6.90
2022-08-05T03:35:59.692Z,6.60
2022-08-05T03:38:33.145Z,6.10
2022-08-05T03:41:10.709Z,6.40
2022-08-05T03:44:11.803Z,6.20
2022-08-05T03:46:39.988Z,6.20
2022-08-05T03:49:20.720Z,6.10
2022-08-05T03:52:50.073Z,7.00
2022-08-05T03:56:06.147Z,6.60
2022-08-05T03:58:36.739Z,7.10
2022-08-05T04:01:08.164Z,6.20
2022-08-05T04:04:09.435Z,6.60
2022-08-05T04:06:33.491Z,6.10
2022-08-05T04:09:14.224Z,6.70
2022-08-05T04:11:58.577Z,6.40
2022-08-05T04:14:41.359Z,6.30
2022-08-05T04:17:12.137Z,6.70
2022-08-05T04:19:45.658Z,6.80
2022-08-05T04:22:22.231Z,6.40
2022-08-05T04:24:54.575Z,6.20
2022-08-05T04:27:41.640Z,7.00
2022-08-05T04:30:10.814Z,7.00
2022-08-05T04:32:57.929Z,7.30
2022-08-05T04:35:26.051Z,8.20
2022-08-05T04:38:23.347Z,7.70
2022-08-05T04:41:09.509Z,8.80
2022-08-05T04:43:46.588Z,7.50
2022-08-05T04:46:28.220Z,8.70
2022-08-05T04:48:58.662Z,8.50
2022-08-05T04:51:30.534Z,8.40
2022-08-05T04:54:01.560Z,8.00
2022-08-05T04:56:40.111Z,8.10
2022-08-05T04:59:22.205Z,7.80
2022-08-05T05:02:35.012Z,7.90
2022-08-05T05:05:29.174Z,8.00
2022-08-05T05:08:02.770Z,7.70
2022-08-05T05:10:55.837Z,7.70
2022-08-05T05:13:24.583Z,7.30
2022-08-05T05:16:01.766Z,7.10
2022-08-05T05:18:36.455Z,7.40
2022-08-05T05:21:05.434Z,6.90
2022-08-05T05:24:01.902Z,6.70
2022-08-05T05:26:28.886Z,6.60
2022-08-05T05:29:21.940Z,6.70
2022-08-05T05:31:57.769Z,6.00
2022-08-05T05:34:52.648Z,6.20
2022-08-05T05:37:20.887Z,6.40
2022-08-05T05:40:20.773Z,6.10
2022-08-05T05:42:54.986Z,5.90
2022-08-05T05:45:24.865Z,5.30
2022-08-05T05:48:06.810Z,5.70
2022-08-05T05:50:57.719Z,5.80
2022-08-05T05:53:25.557Z,5.20
2022-08-05T05:56:03.430Z,5.10
2022-08-05T05:58:32.499Z,5.30
2022-08-05T06:01:57.122Z,5.10
2022-08-05T06:04:37.542Z,5.10
2022-08-05T06:07:09.048Z,4.80
2022-08-05T06:10:49.177Z,4.60
2022-08-05T06:14:18.852Z,4.90
2022-08-05T06:17:22.253Z,5.20
2022-08-05T06:20:18.832Z,4.60
2022-08-05T06:23:25.503Z,4.40
2022-08-05T06:26:20.939Z,4.50
2022-08-05T06:29:46.425Z,4.70
2022-08-05T06:32:25.377Z,4.70
2022-08-05T06:35:21.909Z,3.90
2022-08-05T06:39:04.709Z,4.10
2022-08-05T06:42:25.320Z,4.40
2022-08-05T06:46:02.972Z,4.50
2022-08-05T06:49:12.073Z,4.40
2022-08-05T06:52:37.204Z,5.10
2022-08-05T06:56:07.357Z,4.20
2022-08-05T06:59:38.791Z,4.20
2022-08-05T07:02:42.263Z,4.90
2022-08-05T07:05:36.952Z,5.10
2022-08-05T07:08:48.087Z,3.90
2022-08-05T07:12:00.758Z,4.30
2022-08-05T07:14:47.505Z,4.30
2022-08-05T07:18:28.902Z,3.70
2022-08-05T07:22:01.058Z,4.00
2022-08-05T07:25:55.601Z,4.20
2022-08-05T07:28:33.212Z,3.90
2022-08-05T07:31:55.450Z,4.00
2022-08-05T07:36:02.310Z,3.40
2022-08-05T07:39:24.610Z,4.20
2022-08-05T07:45:57.214Z,4.10
2022-08-05T07:49:07.839Z,4.10
2022-08-05T07:52:28.255Z,4.30
2022-08-05T07:56:05.203Z,3.90
2022-08-05T07:59:40.198Z,4.10
2022-08-05T08:03:15.269Z,4.20
2022-08-05T08:06:44.260Z,4.00
2022-08-05T08:10:05.884Z,3.90
2022-08-05T08:13:29.306Z,3.80
2022-08-05T08:16:58.100Z,4.40
2022-08-05T08:27:23.472Z,4.90
2022-08-05T08:31:04.732Z,3.80
2022-08-05T08:34:33.460Z,3.80
2022-08-05T08:38:02.565Z,4.60
2022-08-05T08:41:52.412Z,3.60
2022-08-05T08:45:18.255Z,3.90
2022-08-05T08:49:06.213Z,2.90
2022-08-05T08:52:37.442Z,3.80
2022-08-05T08:56:06.843Z,3.20
2022-08-05T08:59:35.287Z,3.30
2022-08-05T09:03:02.797Z,3.30
2022-08-05T09:06:32.852Z,3.70
2022-08-05T09:23:47.944Z,3.40
2022-08-05T09:26:54.072Z,3.40
2022-08-05T09:30:16.294Z,4.30
2022-08-05T09:40:00.557Z,3.30
2022-08-05T09:43:40.899Z,3.20
2022-08-05T09:46:57.950Z,3.20
2022-08-05T09:52:45.236Z,2.60
2022-08-05T09:56:04.543Z,3.20
2022-08-05T09:59:37.154Z,3.10
2022-08-05T10:02:36.984Z,2.40
2022-08-05T10:08:53.917Z,2.90
2022-08-05T10:11:35.165Z,2.90
2022-08-05T10:14:42.400Z,3.00
2022-08-05T10:17:54.455Z,3.60
2022-08-05T10:21:26.336Z,3.40
2022-08-05T10:24:46.252Z,3.40
2022-08-05T10:28:13.576Z,3.60
2022-08-05T10:32:52.722Z,3.10
2022-08-05T10:34:52.646Z,3.00
2022-08-05T10:37:40.084Z,3.40
2022-08-05T10:41:23.292Z,3.90
2022-08-05T10:44:31.659Z,3.40
2022-08-05T10:47:47.112Z,3.20
2022-08-05T10:51:23.093Z,4.00
2022-08-05T10:54:56.963Z,3.40
2022-08-05T10:58:35.980Z,4.10
2022-08-05T11:05:31.792Z,3.50
2022-08-05T11:08:36.771Z,3.60
2022-08-05T11:12:05.072Z,2.90
2022-08-05T11:16:00.987Z,4.20
2022-08-05T11:20:10.111Z,3.20
2022-08-05T11:23:08.788Z,3.50
2022-08-05T11:26:28.626Z,3.00
2022-08-05T11:29:47.158Z,3.60
2022-08-05T11:32:51.121Z,3.30
2022-08-05T11:36:34.729Z,2.90
2022-08-05T11:39:19.438Z,4.90
2022-08-05T12:43:21.158Z,3.30
2022-08-05T12:46:45.661Z,3.10
2022-08-05T12:50:03.835Z,2.70
2022-08-05T12:52:29.567Z,3.00
2022-08-05T12:55:55.686Z,3.70
2022-08-05T12:59:21.089Z,3.30
2022-08-05T13:02:55.735Z,2.80
2022-08-05T13:06:18.646Z,3.30
2022-08-05T13:09:50.630Z,3.20
2022-08-05T13:14:04.875Z,3.10
2022-08-05T13:16:52.493Z,2.80
2022-08-05T13:20:24.646Z,3.30
2022-08-05T13:23:34.905Z,3.00
2022-08-05T13:27:23.102Z,2.50
2022-08-05T13:31:14.020Z,3.30
2022-08-05T14:00:02.149Z,3.80
2022-08-05T14:19:55.112Z,3.40
2022-08-05T14:22:54.419Z,2.80
2022-08-05T14:48:10.451Z,3.70
2022-08-05T14:51:38.962Z,3.20
2022-08-05T14:59:01.814Z,3.50
2022-08-05T15:02:22.199Z,2.80
2022-08-05T15:05:21.929Z,3.50
2022-08-05T15:09:01.226Z,3.40
2022-08-05T15:11:58.914Z,3.10
2022-08-05T15:15:54.409Z,3.50
2022-08-05T15:18:25.516Z,3.60
2022-08-05T15:21:34.367Z,3.20
2022-08-05T15:24:53.962Z,3.30
2022-08-05T15:28:02.435Z,3.00
2022-08-05T15:31:34.882Z,3.30
2022-08-05T15:34:53.797Z,3.20
2022-08-05T15:38:33.918Z,2.90
2022-08-05T15:42:53.726Z,3.10
2022-08-05T15:46:00.525Z,3.40
2022-08-05T15:49:41.886Z,3.20
2022-08-05T17:23:02.226Z,3.90
2022-08-05T17:26:21.741Z,4.20
2022-08-05T17:33:10.028Z,4.60
2022-08-05T17:36:40.659Z,4.80
2022-08-05T17:40:10.922Z,4.50
2022-08-05T17:43:47.072Z,4.50
2022-08-05T17:47:14.957Z,4.20
2022-08-05T17:50:33.905Z,4.50
2022-08-05T17:53:42.783Z,4.20
2022-08-05T17:57:12.393Z,4.40
2022-08-05T18:00:18.689Z,5.30
2022-08-05T18:03:58.575Z,8.70
2022-08-05T18:06:29.211Z,10.10
2022-08-05T18:09:59.002Z,10.30
2022-08-05T18:12:32.172Z,11.40
2022-08-05T18:15:02.156Z,13.40
2022-08-05T18:18:00.313Z,11.40
2022-08-05T18:20:34.755Z,10.70
2022-08-05T18:25:57.861Z,9.60
2022-08-05T18:29:01.828Z,10.10
2022-08-05T18:32:01.769Z,7.80
2022-08-05T18:36:00.095Z,7.70
2022-08-05T18:38:32.879Z,6.50
2022-08-05T18:41:57.225Z,6.50
2022-08-05T18:44:51.499Z,5.90
2022-08-05T18:47:38.170Z,6.50
2022-08-05T18:51:02.537Z,7.00
2022-08-05T18:54:28.414Z,7.40
2022-08-05T18:57:43.582Z,8.40
2022-08-05T19:00:51.523Z,8.50
2022-08-05T19:03:55.496Z,8.10
2022-08-05T19:06:48.080Z,7.50
2022-08-05T19:09:39.190Z,7.60
2022-08-05T19:12:59.396Z,7.60
2022-08-05T19:16:03.706Z,7.80
2022-08-05T19:18:52.711Z,7.50
2022-08-05T19:22:01.252Z,7.90
2022-08-05T19:25:03.137Z,6.80
2022-08-05T19:28:04.267Z,7.50
2022-08-05T19:30:52.588Z,8.10
2022-08-05T19:33:48.453Z,8.30
2022-08-05T19:37:30.096Z,8.20
2022-08-05T19:40:48.456Z,8.80
2022-08-05T19:44:05.805Z,7.60
2022-08-05T19:47:29.568Z,8.60
2022-08-05T19:50:36.888Z,8.30
2022-08-05T19:53:09.707Z,7.50
2022-08-05T19:56:29.885Z,8.70
2022-08-05T20:00:00.547Z,8.50
2022-08-05T20:02:42.537Z,8.80
2022-08-05T20:06:01.124Z,8.30
2022-08-05T20:09:14.265Z,8.10
2022-08-05T20:12:03.276Z,8.50
2022-08-05T20:14:49.536Z,8.60
2022-08-05T20:17:29.467Z,9.00
2022-08-05T20:20:07.591Z,9.20
2022-08-05T20:22:37.492Z,9.30
2022-08-05T20:25:10.126Z,8.70
2022-08-05T20:27:42.128Z,9.60
2022-08-05T20:31:02.512Z,9.40
2022-08-05T20:33:31.048Z,9.40
2022-08-05T20:36:02.482Z,9.60
2022-08-05T20:38:35.276Z,9.90
2022-08-05T20:41:26.985Z,9.30
2022-08-05T20:44:15.365Z,9.90
2022-08-05T20:46:45.907Z,10.00
2022-08-05T20:49:18.550Z,10.00
2022-08-05T20:51:57.503Z,9.40
2022-08-05T20:54:43.610Z,10.80
2022-08-05T20:57:42.564Z,10.00
2022-08-05T21:00:40.919Z,9.70
2022-08-05T21:03:06.933Z,9.90
2022-08-05T21:05:48.007Z,10.10
2022-08-05T21:08:26.699Z,10.00
2022-08-05T21:11:01.438Z,10.30
2022-08-05T21:13:56.313Z,10.20
2022-08-05T21:16:40.929Z,10.90
2022-08-05T21:19:09.043Z,10.50
2022-08-05T21:21:43.838Z,11.10
2022-08-05T21:24:15.891Z,10.80
2022-08-05T21:26:53.452Z,10.50
2022-08-05T21:29:48.467Z,11.10
2022-08-05T21:32:39.235Z,10.40
2022-08-05T21:35:29.816Z,11.80
2022-08-05T21:38:19.161Z,11.00
2022-08-05T21:40:47.609Z,11.90
2022-08-05T21:44:03.521Z,11.40
2022-08-05T21:46:34.528Z,11.20
2022-08-05T21:49:07.422Z,12.10
2022-08-05T21:52:16.118Z,11.50
2022-08-05T21:54:45.011Z,11.30
2022-08-05T21:57:59.694Z,10.70
2022-08-05T22:00:51.358Z,10.80
2022-08-05T22:03:48.728Z,11.00
2022-08-05T22:06:23.007Z,11.30
2022-08-05T22:09:13.075Z,11.30
2022-08-05T22:11:49.774Z,11.00
2022-08-05T22:14:35.708Z,11.60
2022-08-05T22:17:16.259Z,11.50
2022-08-05T22:20:03.133Z,11.40
2022-08-05T22:22:52.356Z,11.10
2022-08-05T22:26:09.785Z,11.00
2022-08-05T22:28:27.970Z,11.10
2022-08-05T22:30:58.474Z,11.00
2022-08-05T22:33:55.568Z,10.90
2022-08-05T22:36:46.274Z,11.20
2022-08-05T22:39:42.011Z,11.50
2022-08-05T22:42:25.280Z,10.80
2022-08-05T22:44:56.711Z,11.80
2022-08-05T22:47:29.060Z,12.00
2022-08-05T22:50:22.845Z,11.90
2022-08-05T22:53:12.401Z,11.60
2022-08-05T22:55:59.152Z,11.70
2022-08-05T22:58:47.861Z,11.50
2022-08-05T23:02:04.147Z,11.40
2022-08-05T23:04:24.537Z,11.60
2022-08-05T23:06:53.220Z,11.20
2022-08-05T23:09:28.060Z,11.30
2022-08-05T23:12:09.489Z,10.80
2022-08-05T23:14:49.419Z,10.80
2022-08-05T23:17:24.154Z,11.70
2022-08-05T23:19:57.562Z,11.60
2022-08-05T23:22:29.382Z,10.80
2022-08-05T23:24:58.921Z,11.00
2022-08-05T23:27:42.280Z,10.50
2022-08-05T23:30:31.200Z,10.10
2022-08-05T23:32:59.331Z,11.30
2022-08-05T23:35:28.487Z,10.90
2022-08-05T23:38:12.748Z,11.50
2022-08-05T23:40:42.463Z,11.30
2022-08-05T23:43:25.091Z,10.60
2022-08-05T23:46:20.117Z,10.60
2022-08-05T23:49:00.659Z,10.60
2022-08-05T23:51:57.146Z,10.10
2022-08-05T23:54:45.963Z,10.90
2022-08-05T23:57:28.835Z,10.40
